createdAt,value
2018-09-30T00:00:53.633Z,3.30
2018-09-30T00:03:22.013Z,3.30
2018-09-30T00:05:50.365Z,3.60
2018-09-30T00:08:18.768Z,3.03
2018-09-30T00:10:47.133Z,3.60
2018-09-30T00:13:18.662Z,3.23
2018-09-30T00:15:47.079Z,3.40
2018-09-30T00:18:15.458Z,3.10
2018-09-30T00:20:43.922Z,3.97
2018-09-30T00:23:12.349Z,3.13
2018-09-30T00:25:45.977Z,3.37
2018-09-30T00:28:14.336Z,3.67
2018-09-30T00:30:42.700Z,3.80
2018-09-30T00:33:11.069Z,3.70
2018-09-30T00:35:39.477Z,3.50
2018-09-30T00:38:07.861Z,3.70
2018-09-30T00:40:36.243Z,4.50
2018-09-30T00:43:04.621Z,3.83
2018-09-30T00:45:32.993Z,4.73
2018-09-30T00:48:03.500Z,4.30
2018-09-30T00:50:31.905Z,4.20
2018-09-30T00:53:00.244Z,4.53
2018-09-30T00:55:28.624Z,4.23
2018-09-30T00:57:58.048Z,5.57
2018-09-30T01:00:26.548Z,5.17
2018-09-30T01:02:54.900Z,4.87
2018-09-30T01:05:23.301Z,5.80
2018-09-30T01:07:51.819Z,3.80
2018-09-30T01:10:20.221Z,5.27
2018-09-30T01:12:48.599Z,4.00
2018-09-30T01:15:17.030Z,4.40
2018-09-30T01:17:45.373Z,4.30
2018-09-30T01:20:13.744Z,4.73
2018-09-30T01:22:44.060Z,4.47
2018-09-30T01:25:12.444Z,3.90
2018-09-30T01:27:40.808Z,4.30
2018-09-30T01:30:09.196Z,4.67
2018-09-30T01:32:37.560Z,3.83
2018-09-30T01:35:05.949Z,4.97
2018-09-30T01:37:34.361Z,4.10
2018-09-30T01:40:02.760Z,4.37
2018-09-30T01:42:32.109Z,3.90
2018-09-30T01:45:00.480Z,4.20
2018-09-30T01:47:28.844Z,4.37
2018-09-30T01:49:57.217Z,3.93
2018-09-30T01:52:58.296Z,3.70
2018-09-30T01:55:26.696Z,4.60
2018-09-30T01:57:55.052Z,3.77
2018-09-30T02:00:23.429Z,3.80
2018-09-30T02:02:51.788Z,3.70
2018-09-30T02:05:20.153Z,4.00
2018-09-30T02:07:49.068Z,4.80
2018-09-30T02:10:17.769Z,4.03
2018-09-30T02:12:46.493Z,4.23
2018-09-30T02:15:14.902Z,3.50
2018-09-30T02:17:44.381Z,4.00
2018-09-30T02:20:12.724Z,3.47
2018-09-30T02:22:41.076Z,4.20
2018-09-30T02:25:09.412Z,4.40
2018-09-30T02:27:37.752Z,4.13
2018-09-30T02:30:06.386Z,4.00
2018-09-30T02:32:34.716Z,4.50
2018-09-30T02:35:03.067Z,4.63
2018-09-30T02:37:31.444Z,4.60
2018-09-30T02:40:00.885Z,4.00
2018-09-30T02:42:29.233Z,3.73
2018-09-30T02:44:57.606Z,4.17
2018-09-30T02:47:25.937Z,3.70
2018-09-30T02:49:54.292Z,3.03
2018-09-30T02:52:22.645Z,4.30
2018-09-30T02:54:51.004Z,4.90
2018-09-30T02:57:19.369Z,4.40
2018-09-30T02:59:47.717Z,3.70
2018-09-30T03:02:16.057Z,4.27
2018-09-30T03:04:44.427Z,3.60
2018-09-30T03:07:18.140Z,3.80
2018-09-30T03:09:46.488Z,4.10
2018-09-30T03:12:14.860Z,3.70
2018-09-30T03:14:43.209Z,3.63
2018-09-30T03:17:11.568Z,3.83
2018-09-30T03:19:39.913Z,4.40
2018-09-30T03:22:08.277Z,4.20
2018-09-30T03:24:36.739Z,3.87
2018-09-30T03:27:05.081Z,3.53
2018-09-30T03:29:33.421Z,4.00
2018-09-30T03:32:01.779Z,4.70
2018-09-30T03:34:30.119Z,4.70
2018-09-30T03:36:58.492Z,3.50
2018-09-30T03:39:26.884Z,4.63
2018-09-30T03:41:55.228Z,4.40
2018-09-30T03:44:23.612Z,3.00
2018-09-30T03:46:51.984Z,3.07
2018-09-30T03:49:20.346Z,3.20
2018-09-30T03:51:48.722Z,3.27
2018-09-30T03:54:17.090Z,3.83
2018-09-30T03:56:45.516Z,4.07
2018-09-30T03:59:13.845Z,3.50
2018-09-30T04:01:42.234Z,4.13
2018-09-30T04:04:10.606Z,5.10
2018-09-30T04:06:38.965Z,3.30
2018-09-30T04:09:08.724Z,3.77
2018-09-30T04:11:37.440Z,4.10
2018-09-30T04:14:05.843Z,3.83
2018-09-30T04:16:34.228Z,3.77
2018-09-30T04:19:02.757Z,3.93
2018-09-30T04:21:31.122Z,4.20
2018-09-30T04:24:07.316Z,3.83
2018-09-30T04:26:37.520Z,4.00
2018-09-30T04:29:06.178Z,4.90
2018-09-30T04:31:34.824Z,3.80
2018-09-30T04:34:03.681Z,5.10
2018-09-30T04:36:33.192Z,4.40
2018-09-30T04:39:01.661Z,4.07
2018-09-30T04:41:30.666Z,3.53
2018-09-30T04:43:59.232Z,3.23
2018-09-30T04:46:27.953Z,4.67
2018-09-30T04:48:56.289Z,3.93
2018-09-30T04:51:24.625Z,4.47
2018-09-30T04:53:52.994Z,3.60
2018-09-30T04:56:21.380Z,3.80
2018-09-30T04:58:49.711Z,4.83
2018-09-30T05:01:18.040Z,3.93
2018-09-30T05:03:46.372Z,4.03
2018-09-30T05:06:14.823Z,3.30
2018-09-30T05:08:43.175Z,4.23
2018-09-30T05:11:11.539Z,3.43
2018-09-30T05:13:39.916Z,4.10
2018-09-30T05:16:08.338Z,4.03
2018-09-30T05:18:36.635Z,4.40
2018-09-30T05:21:04.987Z,3.70
2018-09-30T05:23:33.333Z,3.80
2018-09-30T05:26:01.740Z,4.07
2018-09-30T05:28:30.065Z,3.87
2018-09-30T05:30:58.417Z,3.57
2018-09-30T05:33:26.756Z,3.20
2018-09-30T05:35:55.197Z,3.60
2018-09-30T05:38:23.534Z,4.10
2018-09-30T05:40:51.892Z,5.20
2018-09-30T05:43:20.246Z,3.60
2018-09-30T05:45:48.616Z,3.00
2018-09-30T05:48:16.939Z,4.00
2018-09-30T05:50:45.284Z,3.67
2018-09-30T05:53:14.679Z,3.60
2018-09-30T05:55:43.064Z,3.30
2018-09-30T05:58:11.396Z,4.27
2018-09-30T06:00:40.061Z,3.67
2018-09-30T06:03:08.553Z,3.30
2018-09-30T06:05:36.908Z,3.07
2018-09-30T06:08:05.266Z,3.60
2018-09-30T06:10:33.597Z,3.90
2018-09-30T06:13:03.052Z,3.40
2018-09-30T06:15:31.419Z,3.40
2018-09-30T06:18:00.184Z,2.83
2018-09-30T06:20:28.525Z,2.70
2018-09-30T06:22:56.905Z,3.53
2018-09-30T06:25:25.318Z,3.50
2018-09-30T06:27:53.704Z,3.50
2018-09-30T06:30:23.136Z,3.67
2018-09-30T06:32:51.521Z,4.10
2018-09-30T06:35:19.905Z,3.60
2018-09-30T06:37:48.265Z,4.57
2018-09-30T06:40:16.664Z,4.17
2018-09-30T06:42:45.017Z,4.17
2018-09-30T06:45:13.421Z,3.63
2018-09-30T06:47:41.776Z,4.47
2018-09-30T06:50:10.153Z,3.27
2018-09-30T06:52:38.528Z,3.70
2018-09-30T06:55:06.976Z,4.20
2018-09-30T06:57:35.369Z,3.60
2018-09-30T07:00:04.797Z,4.00
2018-09-30T07:02:33.161Z,4.03
2018-09-30T07:05:01.614Z,3.97
2018-09-30T07:07:30.964Z,3.50
2018-09-30T07:09:59.345Z,3.63
2018-09-30T07:12:27.722Z,4.10
2018-09-30T07:14:56.110Z,3.67
2018-09-30T07:17:24.510Z,3.90
2018-09-30T07:19:52.888Z,4.13
2018-09-30T07:22:21.344Z,3.40
2018-09-30T07:24:51.766Z,4.47
2018-09-30T07:27:20.121Z,3.70
2018-09-30T07:29:52.329Z,4.03
2018-09-30T07:32:20.684Z,4.20
2018-09-30T07:34:49.179Z,3.47
2018-09-30T07:37:17.656Z,4.37
2018-09-30T07:39:46.041Z,3.73
2018-09-30T07:42:14.401Z,4.00
2018-09-30T07:44:42.981Z,3.73
2018-09-30T07:47:11.331Z,3.90
2018-09-30T07:49:39.740Z,4.33
2018-09-30T07:52:08.137Z,3.97
2018-09-30T07:54:37.510Z,4.00
2018-09-30T07:57:06.230Z,4.00
2018-09-30T07:59:34.620Z,4.13
2018-09-30T08:02:02.998Z,4.17
2018-09-30T08:04:31.353Z,4.23
2018-09-30T08:07:01.797Z,4.10
2018-09-30T08:09:31.173Z,4.00
2018-09-30T08:11:59.505Z,4.03
2018-09-30T08:14:27.903Z,3.97
2018-09-30T08:16:56.879Z,4.23
2018-09-30T08:19:25.852Z,3.83
2018-09-30T08:21:55.291Z,4.27
2018-09-30T08:24:24.564Z,4.57
2018-09-30T08:26:52.866Z,4.37
2018-09-30T08:29:21.219Z,5.30
2018-09-30T08:31:49.677Z,4.20
2018-09-30T08:34:18.028Z,4.30
2018-09-30T08:36:46.460Z,5.33
2018-09-30T08:39:14.784Z,5.57
2018-09-30T08:41:43.146Z,4.03
2018-09-30T08:44:11.555Z,3.73
2018-09-30T08:46:39.899Z,4.50
2018-09-30T08:49:09.256Z,4.27
2018-09-30T08:51:37.605Z,4.30
2018-09-30T08:54:07.266Z,3.80
2018-09-30T08:56:37.733Z,3.93
2018-09-30T08:59:06.137Z,4.60
2018-09-30T09:01:34.473Z,4.17
2018-09-30T09:04:02.841Z,4.70
2018-09-30T09:06:31.229Z,4.87
2018-09-30T09:08:59.580Z,4.13
2018-09-30T09:11:27.925Z,4.60
2018-09-30T09:13:56.280Z,3.90
2018-09-30T09:16:24.605Z,5.10
2018-09-30T09:18:52.955Z,4.27
2018-09-30T09:21:22.393Z,4.20
2018-09-30T09:23:50.772Z,3.90
2018-09-30T09:26:19.129Z,4.53
2018-09-30T09:28:47.485Z,4.57
2018-09-30T09:31:15.840Z,4.27
2018-09-30T09:33:44.189Z,4.67
2018-09-30T09:36:12.532Z,4.93
2018-09-30T09:38:40.873Z,4.20
2018-09-30T09:41:09.236Z,4.43
2018-09-30T09:43:38.629Z,3.97
2018-09-30T09:46:07.001Z,4.63
2018-09-30T09:48:35.328Z,4.50
2018-09-30T09:51:04.288Z,3.90
2018-09-30T09:53:32.635Z,4.03
2018-09-30T09:56:01.132Z,4.03
2018-09-30T09:58:29.456Z,4.50
2018-09-30T10:01:02.053Z,5.50
2018-09-30T10:03:30.460Z,5.83
2018-09-30T10:05:58.820Z,5.00
2018-09-30T10:08:27.150Z,4.80
2018-09-30T10:10:55.513Z,4.97
2018-09-30T10:13:23.869Z,4.90
2018-09-30T10:15:52.213Z,4.90
2018-09-30T10:18:20.557Z,4.83
2018-09-30T10:20:48.952Z,4.50
2018-09-30T10:23:17.297Z,4.53
2018-09-30T10:25:45.661Z,4.93
2018-09-30T10:28:14.013Z,5.13
2018-09-30T10:30:42.387Z,4.83
2018-09-30T10:33:10.737Z,5.80
2018-09-30T10:35:39.085Z,5.13
2018-09-30T10:38:07.485Z,5.53
2018-09-30T10:40:35.877Z,4.93
2018-09-30T10:43:04.192Z,5.73
2018-09-30T10:45:32.500Z,5.17
2018-09-30T10:48:00.844Z,5.13
2018-09-30T10:50:29.156Z,5.63
2018-09-30T10:52:57.472Z,4.50
2018-09-30T10:55:26.914Z,5.63
2018-09-30T10:57:55.184Z,5.50
2018-09-30T11:00:23.590Z,5.40
2018-09-30T11:02:53.663Z,4.47
2018-09-30T11:05:22.024Z,6.10
2018-09-30T11:07:50.363Z,5.63
2018-09-30T11:10:18.888Z,4.80
2018-09-30T11:12:47.203Z,5.30
2018-09-30T11:15:15.516Z,5.20
2018-09-30T11:17:44.928Z,5.83
2018-09-30T11:20:13.248Z,6.00
2018-09-30T11:22:41.605Z,6.47
2018-09-30T11:25:09.972Z,5.70
2018-09-30T11:27:38.358Z,5.53
2018-09-30T11:30:07.741Z,6.13
2018-09-30T11:32:36.102Z,5.97
2018-09-30T11:35:04.541Z,6.10
2018-09-30T11:37:33.012Z,5.77
2018-09-30T11:40:01.342Z,6.23
2018-09-30T11:42:29.687Z,5.90
2018-09-30T11:44:58.045Z,6.20
2018-09-30T11:47:26.414Z,6.10
2018-09-30T11:49:55.759Z,5.37
2018-09-30T11:52:24.121Z,5.37
2018-09-30T11:54:52.482Z,5.27
2018-09-30T11:57:20.836Z,4.87
2018-09-30T11:59:49.244Z,5.53
2018-09-30T12:02:17.688Z,6.73
2018-09-30T12:04:46.014Z,5.90
2018-09-30T12:07:14.381Z,5.47
2018-09-30T12:09:42.761Z,6.10
2018-09-30T12:12:11.597Z,5.20
2018-09-30T12:14:39.972Z,6.17
2018-09-30T12:17:08.311Z,6.47
2018-09-30T12:19:36.668Z,6.20
2018-09-30T12:22:05.313Z,5.50
2018-09-30T12:24:33.873Z,6.10
2018-09-30T12:27:02.224Z,6.10
2018-09-30T12:29:31.586Z,6.30
2018-09-30T12:31:59.932Z,5.60
2018-09-30T12:34:28.276Z,4.67
2018-09-30T12:36:57.916Z,4.80
2018-09-30T12:39:26.451Z,5.20
2018-09-30T12:41:54.728Z,4.63
2018-09-30T12:44:24.085Z,5.33
2018-09-30T12:46:52.438Z,4.70
2018-09-30T12:49:20.798Z,4.50
2018-09-30T12:51:49.213Z,4.60
2018-09-30T12:54:17.589Z,5.00
2018-09-30T12:56:45.937Z,4.20
2018-09-30T12:59:15.409Z,4.13
2018-09-30T13:01:43.765Z,4.77
2018-09-30T13:04:12.100Z,4.50
2018-09-30T13:06:40.476Z,4.77
2018-09-30T13:09:09.586Z,4.50
2018-09-30T13:11:37.981Z,4.43
2018-09-30T13:14:06.736Z,4.03
2018-09-30T13:16:36.157Z,5.10
2018-09-30T13:19:04.529Z,4.60
2018-09-30T13:21:32.892Z,3.97
2018-09-30T13:24:01.281Z,4.40
2018-09-30T13:26:29.608Z,4.83
2018-09-30T13:28:58.013Z,4.63
2018-09-30T13:31:26.344Z,4.33
2018-09-30T13:33:54.768Z,4.57
2018-09-30T13:36:24.013Z,4.40
2018-09-30T13:38:53.452Z,4.80
2018-09-30T13:41:21.929Z,3.73
2018-09-30T13:43:50.225Z,4.33
2018-09-30T13:46:18.651Z,4.13
2018-09-30T13:48:46.925Z,4.67
2018-09-30T13:51:15.294Z,4.40
2018-09-30T13:53:43.628Z,5.50
2018-09-30T13:56:12.036Z,4.87
2018-09-30T13:58:40.369Z,5.60
2018-09-30T14:01:08.949Z,5.20
2018-09-30T14:03:37.568Z,5.20
2018-09-30T14:06:05.957Z,5.80
2018-09-30T14:08:34.324Z,5.97
2018-09-30T14:11:03.712Z,5.23
2018-09-30T14:13:32.052Z,5.97
2018-09-30T14:16:00.513Z,7.57
2018-09-30T14:18:29.677Z,6.47
2018-09-30T14:20:58.000Z,6.77
2018-09-30T14:23:26.440Z,6.80
2018-09-30T14:25:54.789Z,7.33
2018-09-30T14:28:23.118Z,5.97
2018-09-30T14:30:51.476Z,4.50
2018-09-30T14:33:19.834Z,4.80
2018-09-30T14:35:49.203Z,4.57
2018-09-30T14:38:17.942Z,3.93
2018-09-30T14:40:46.277Z,4.10
2018-09-30T14:43:14.601Z,3.20
2018-09-30T14:45:42.948Z,3.20
2018-09-30T14:48:11.349Z,3.23
2018-09-30T14:50:39.628Z,3.60
2018-09-30T14:53:08.173Z,3.27
2018-09-30T14:55:36.502Z,3.80
2018-09-30T14:58:05.576Z,3.43
2018-09-30T15:00:33.937Z,4.47
2018-09-30T15:03:02.321Z,3.97
2018-09-30T15:05:30.669Z,2.80
2018-09-30T15:07:59.013Z,4.47
2018-09-30T15:10:27.385Z,3.00
2018-09-30T15:12:56.824Z,3.20
2018-09-30T15:15:25.169Z,3.13
2018-09-30T15:17:54.673Z,2.63
2018-09-30T15:20:23.017Z,2.90
2018-09-30T15:22:51.449Z,3.50
2018-09-30T15:25:19.786Z,3.10
2018-09-30T15:27:48.189Z,3.27
2018-09-30T15:30:17.557Z,3.03
2018-09-30T15:32:46.952Z,2.60
2018-09-30T15:35:15.381Z,3.63
2018-09-30T15:37:43.772Z,3.40
2018-09-30T15:40:13.119Z,3.23
2018-09-30T15:42:41.602Z,2.77
2018-09-30T15:45:10.270Z,2.80
2018-09-30T15:47:38.626Z,3.60
2018-09-30T15:50:08.069Z,2.60
2018-09-30T15:52:36.442Z,3.57
2018-09-30T15:55:04.817Z,3.70
2018-09-30T15:57:33.217Z,3.23
2018-09-30T16:00:01.546Z,3.40
2018-09-30T16:02:29.875Z,3.60
2018-09-30T16:04:58.347Z,3.37
2018-09-30T16:07:26.689Z,3.10
2018-09-30T16:09:55.031Z,4.00
2018-09-30T16:12:23.614Z,3.10
2018-09-30T16:14:51.956Z,3.17
2018-09-30T16:17:20.292Z,3.10
2018-09-30T16:19:49.724Z,3.97
2018-09-30T16:22:18.048Z,3.73
2018-09-30T16:24:46.388Z,3.90
2018-09-30T16:27:14.765Z,3.90
2018-09-30T16:29:44.150Z,3.53
2018-09-30T16:32:12.452Z,3.43
2018-09-30T16:34:40.811Z,3.47
2018-09-30T16:37:09.261Z,3.10
2018-09-30T16:39:37.618Z,3.77
2018-09-30T16:42:07.169Z,4.00
2018-09-30T16:44:35.567Z,3.43
2018-09-30T16:47:03.912Z,3.63
2018-09-30T16:49:32.424Z,4.03
2018-09-30T16:52:00.771Z,3.53
2018-09-30T16:54:30.169Z,3.70
2018-09-30T16:56:59.647Z,3.50
2018-09-30T16:59:28.006Z,4.53
2018-09-30T17:01:56.352Z,4.53
2018-09-30T17:04:24.756Z,4.60
2018-09-30T17:06:54.118Z,3.50
2018-09-30T17:09:22.540Z,4.10
2018-09-30T17:11:50.997Z,4.10
2018-09-30T17:14:19.393Z,3.90
2018-09-30T17:16:47.810Z,4.53
2018-09-30T17:19:17.293Z,4.83
2018-09-30T17:21:46.954Z,3.70
2018-09-30T17:24:15.330Z,3.70
2018-09-30T17:26:43.721Z,3.73
2018-09-30T17:29:12.141Z,3.83
2018-09-30T17:31:40.534Z,4.13
2018-09-30T17:34:08.957Z,4.10
2018-09-30T17:36:37.337Z,4.63
2018-09-30T17:39:07.946Z,4.40
2018-09-30T17:41:37.385Z,6.50
2018-09-30T17:44:05.983Z,3.30
2018-09-30T17:46:35.473Z,4.30
2018-09-30T17:49:04.034Z,4.17
2018-09-30T17:51:33.462Z,4.40
2018-09-30T17:54:01.896Z,3.87
2018-09-30T17:56:30.312Z,3.80
2018-09-30T17:58:59.757Z,3.87
2018-09-30T18:01:28.235Z,3.97
2018-09-30T18:03:56.631Z,3.43
2018-09-30T18:06:24.919Z,4.40
2018-09-30T18:08:53.258Z,4.27
2018-09-30T18:11:21.572Z,4.83
2018-09-30T18:13:49.919Z,5.20
2018-09-30T18:16:18.255Z,3.13
2018-09-30T18:18:47.659Z,4.30
2018-09-30T18:21:16.026Z,4.97
2018-09-30T18:23:44.474Z,3.90
2018-09-30T18:26:12.773Z,3.37
2018-09-30T18:28:41.136Z,4.07
2018-09-30T18:31:09.652Z,5.43
2018-09-30T18:33:38.059Z,5.30
2018-09-30T18:36:06.486Z,7.47
2018-09-30T18:38:34.845Z,4.80
2018-09-30T18:41:03.245Z,5.30
2018-09-30T18:43:31.613Z,4.30
2018-09-30T18:45:59.986Z,4.80
2018-09-30T18:48:28.379Z,5.10
2018-09-30T18:50:56.757Z,5.23
2018-09-30T18:53:26.128Z,4.60
2018-09-30T18:55:54.517Z,5.20
2018-09-30T18:58:22.845Z,5.30
2018-09-30T19:00:51.202Z,5.80
2018-09-30T19:03:19.627Z,5.20
2018-09-30T19:05:47.946Z,5.53
2018-09-30T19:08:16.349Z,5.00
2018-09-30T19:10:44.707Z,6.63
2018-09-30T19:13:13.092Z,6.90
2018-09-30T19:15:41.590Z,6.70
2018-09-30T19:18:10.980Z,6.60
2018-09-30T19:20:39.344Z,7.53
2018-09-30T19:23:09.776Z,6.70
2018-09-30T19:25:38.129Z,5.37
2018-09-30T19:28:06.516Z,7.37
2018-09-30T19:30:35.921Z,6.03
2018-09-30T19:33:04.273Z,6.13
2018-09-30T19:35:32.648Z,5.73
2018-09-30T19:38:01.025Z,6.90
2018-09-30T19:40:30.365Z,6.50
2018-09-30T19:42:58.736Z,7.07
2018-09-30T19:45:28.181Z,6.40
2018-09-30T19:47:57.603Z,7.00
2018-09-30T19:50:25.945Z,6.77
2018-09-30T19:52:54.316Z,6.87
2018-09-30T19:55:22.678Z,6.40
2018-09-30T19:57:51.157Z,7.17
2018-09-30T20:00:19.529Z,6.63
2018-09-30T20:02:47.896Z,7.03
2018-09-30T20:05:17.301Z,7.77
2018-09-30T20:07:45.669Z,6.30
2018-09-30T20:10:15.297Z,7.37
2018-09-30T20:12:43.648Z,8.03
2018-09-30T20:15:12.085Z,8.83
2018-09-30T20:17:40.409Z,7.73
2018-09-30T20:20:08.778Z,8.43
2018-09-30T20:22:37.140Z,8.60
2018-09-30T20:25:05.577Z,8.60
2018-09-30T20:27:33.877Z,8.57
2018-09-30T20:30:03.256Z,9.20
2018-09-30T20:32:31.689Z,6.77
2018-09-30T20:35:00.126Z,6.70
2018-09-30T20:37:28.563Z,7.00
2018-09-30T20:39:56.901Z,5.90
2018-09-30T20:42:25.261Z,8.07
2018-09-30T20:44:54.648Z,7.70
2018-09-30T20:47:23.019Z,6.30
2018-09-30T20:49:51.379Z,6.37
2018-09-30T20:52:20.939Z,5.83
2018-09-30T20:54:49.282Z,5.90
2018-09-30T20:57:21.344Z,5.20
2018-09-30T20:59:50.689Z,5.50
2018-09-30T21:02:19.064Z,5.43
2018-09-30T21:04:47.464Z,4.70
2018-09-30T21:07:15.800Z,4.20
2018-09-30T21:09:44.145Z,4.20
2018-09-30T21:12:12.530Z,4.40
2018-09-30T21:14:40.897Z,4.23
2018-09-30T21:17:10.269Z,4.30
2018-09-30T21:20:41.880Z,4.30
2018-09-30T21:23:10.249Z,4.97
2018-09-30T21:25:39.676Z,4.13
2018-09-30T21:28:08.072Z,3.83
2018-09-30T21:30:36.431Z,3.70
2018-09-30T21:33:04.808Z,3.30
2018-09-30T21:35:33.400Z,3.27
2018-09-30T21:38:01.952Z,3.87
2018-09-30T21:40:30.822Z,3.80
2018-09-30T21:42:59.222Z,4.10
2018-09-30T21:45:27.576Z,4.20
2018-09-30T21:47:55.916Z,5.23
2018-09-30T21:50:24.317Z,4.90
2018-09-30T21:52:52.798Z,4.53
2018-09-30T21:55:21.209Z,4.77
2018-09-30T21:57:51.986Z,4.70
2018-09-30T22:00:27.510Z,5.50
2018-09-30T22:02:58.468Z,5.80
2018-09-30T22:05:30.093Z,5.20
2018-09-30T22:08:01.260Z,5.60
2018-09-30T22:10:31.301Z,6.97
2018-09-30T22:13:04.136Z,5.97
2018-09-30T22:15:33.544Z,6.17
2018-09-30T22:18:01.973Z,6.37
2018-09-30T22:20:30.386Z,5.60
2018-09-30T22:22:58.729Z,5.00
2018-09-30T22:25:27.132Z,6.03
2018-09-30T22:27:55.561Z,5.80
2018-09-30T22:30:24.230Z,5.70
2018-09-30T22:32:52.609Z,6.10
2018-09-30T22:35:21.004Z,6.20
2018-09-30T22:37:49.428Z,6.47
2018-09-30T22:40:17.878Z,5.10
2018-09-30T22:42:46.229Z,5.23
2018-09-30T22:45:14.621Z,5.73
2018-09-30T22:47:42.972Z,5.13
2018-09-30T22:50:12.345Z,4.73
2018-09-30T22:52:40.721Z,5.03
2018-09-30T22:55:09.085Z,5.00
2018-09-30T22:57:38.872Z,4.27
2018-09-30T23:00:07.805Z,3.93
2018-09-30T23:02:36.213Z,4.07
2018-09-30T23:05:06.736Z,4.03
2018-09-30T23:07:35.444Z,4.23
2018-09-30T23:10:06.460Z,4.23
2018-09-30T23:12:34.864Z,4.90
2018-09-30T23:15:03.244Z,5.03
2018-09-30T23:17:31.729Z,5.30
2018-09-30T23:20:00.208Z,5.73
2018-09-30T23:22:28.551Z,4.80
2018-09-30T23:24:57.071Z,5.10
2018-09-30T23:27:27.417Z,4.97
2018-09-30T23:29:56.669Z,5.33
2018-09-30T23:32:25.303Z,5.50
2018-09-30T23:34:53.656Z,4.80
2018-09-30T23:37:22.005Z,4.30
2018-09-30T23:39:50.341Z,4.20
2018-09-30T23:42:18.696Z,5.80
2018-09-30T23:44:47.039Z,5.47
2018-09-30T23:47:16.303Z,4.90
2018-09-30T23:49:45.049Z,4.97
2018-09-30T23:52:13.416Z,4.60
2018-09-30T23:54:42.768Z,4.63
2018-09-30T23:57:11.242Z,5.10
2018-09-30T23:59:39.685Z,4.53
